createdAt,value
2022-08-04T00:00:39.973Z,22.41
2022-08-04T00:03:43.993Z,22.28
2022-08-04T00:06:51.614Z,22.22
2022-08-04T00:10:00.185Z,22.13
2022-08-04T00:13:06.106Z,22.11
2022-08-04T00:16:09.291Z,22.19
2022-08-04T00:19:12.364Z,22.11
2022-08-04T00:22:17.432Z,22.01
2022-08-04T00:25:19.727Z,21.99
2022-08-04T00:28:23.554Z,21.92
2022-08-04T00:31:54.331Z,21.87
2022-08-04T00:34:48.573Z,21.84
2022-08-04T00:37:55.397Z,21.89
2022-08-04T00:41:03.256Z,21.92
2022-08-04T00:44:23.243Z,21.83
2022-08-04T00:47:40.929Z,21.77
2022-08-04T00:50:45.099Z,21.74
2022-08-04T00:53:55.158Z,21.84
2022-08-04T00:57:34.071Z,21.85
2022-08-04T01:00:49.050Z,21.76
2022-08-04T01:03:56.072Z,21.76
2022-08-04T01:07:07.308Z,21.83
2022-08-04T01:10:17.426Z,21.76
2022-08-04T01:13:34.259Z,21.63
2022-08-04T01:16:45.159Z,21.54
2022-08-04T01:20:02.591Z,21.61
2022-08-04T01:23:29.947Z,21.58
2022-08-04T01:26:57.516Z,21.61
2022-08-04T01:30:01.899Z,21.61
2022-08-04T01:33:04.833Z,21.67
2022-08-04T01:36:07.422Z,21.66
2022-08-04T01:39:35.852Z,21.56
2022-08-04T01:42:42.323Z,21.47
2022-08-04T01:45:50.510Z,21.43
2022-08-04T01:48:53.982Z,21.40
2022-08-04T01:51:56.339Z,21.45
2022-08-04T01:54:58.098Z,21.38
2022-08-04T01:58:01.127Z,21.41
2022-08-04T02:01:08.445Z,21.36
2022-08-04T02:04:23.163Z,21.31
2022-08-04T02:07:32.811Z,21.31
2022-08-04T02:10:40.765Z,21.37
2022-08-04T02:13:48.455Z,21.28
2022-08-04T02:16:54.940Z,21.22
2022-08-04T02:20:09.828Z,21.25
2022-08-04T02:23:14.590Z,21.22
2022-08-04T02:26:19.529Z,21.23
2022-08-04T02:29:32.239Z,21.10
2022-08-04T02:32:39.969Z,21.04
2022-08-04T02:35:44.680Z,20.98
2022-08-04T02:38:57.396Z,20.93
2022-08-04T02:41:59.280Z,20.95
2022-08-04T02:45:01.454Z,20.91
2022-08-04T02:48:08.175Z,20.94
2022-08-04T02:51:30.082Z,20.83
2022-08-04T02:54:33.958Z,20.79
2022-08-04T02:57:37.917Z,20.82
2022-08-04T03:00:39.903Z,20.87
2022-08-04T03:03:48.697Z,20.82
2022-08-04T03:07:06.405Z,20.71
2022-08-04T03:10:26.240Z,20.72
2022-08-04T03:13:54.619Z,20.72
2022-08-04T03:17:23.488Z,20.71
2022-08-04T03:20:40.189Z,20.77
2022-08-04T03:24:09.105Z,20.75
2022-08-04T03:27:12.317Z,20.74
2022-08-04T03:30:16.199Z,20.71
2022-08-04T03:33:28.583Z,20.58
2022-08-04T03:37:00.400Z,20.50
2022-08-04T03:40:20.274Z,20.47
2022-08-04T03:43:58.775Z,20.49
2022-08-04T03:47:17.367Z,20.54
2022-08-04T03:50:41.565Z,20.52
2022-08-04T03:53:50.592Z,20.65
2022-08-04T03:57:02.431Z,20.78
2022-08-04T04:00:06.219Z,20.84
2022-08-04T04:03:28.801Z,20.86
2022-08-04T04:06:54.931Z,20.82
2022-08-04T04:10:19.110Z,20.70
2022-08-04T04:13:31.622Z,20.60
2022-08-04T04:16:38.758Z,20.55
2022-08-04T04:19:51.886Z,20.46
2022-08-04T04:23:11.335Z,20.50
2022-08-04T04:26:29.126Z,20.50
2022-08-04T04:29:44.592Z,20.50
2022-08-04T04:33:03.531Z,20.50
2022-08-04T04:36:11.676Z,20.51
2022-08-04T04:39:18.165Z,20.57
2022-08-04T04:42:38.537Z,20.59
2022-08-04T04:45:44.131Z,20.60
2022-08-04T04:48:48.246Z,20.63
2022-08-04T04:51:52.073Z,20.66
2022-08-04T04:54:59.244Z,20.73
2022-08-04T04:58:02.760Z,20.81
2022-08-04T05:01:27.069Z,20.88
2022-08-04T05:04:51.650Z,20.88
2022-08-04T05:08:40.977Z,20.93
2022-08-04T05:11:48.379Z,20.99
2022-08-04T05:14:53.526Z,21.08
2022-08-04T05:17:57.326Z,21.11
2022-08-04T05:21:06.792Z,21.13
2022-08-04T05:24:11.525Z,21.16
2022-08-04T05:27:17.178Z,21.22
2022-08-04T05:30:25.717Z,21.26
2022-08-04T05:33:37.541Z,21.28
2022-08-04T05:36:41.757Z,21.39
2022-08-04T05:39:48.757Z,21.47
2022-08-04T05:42:53.960Z,21.54
2022-08-04T05:46:00.353Z,21.63
2022-08-04T05:49:02.929Z,21.76
2022-08-04T05:52:05.833Z,21.86
2022-08-04T05:55:56.620Z,21.94
2022-08-04T05:58:40.662Z,22.03
2022-08-04T06:01:55.748Z,22.09
2022-08-04T06:05:00.573Z,22.15
2022-08-04T06:08:04.503Z,22.24
2022-08-04T06:11:15.278Z,22.36
2022-08-04T06:14:18.930Z,22.47
2022-08-04T06:18:35.416Z,22.58
2022-08-04T06:20:50.233Z,22.71
2022-08-04T06:23:57.824Z,22.78
2022-08-04T06:27:10.439Z,22.87
2022-08-04T06:30:17.285Z,22.97
2022-08-04T06:33:25.110Z,23.04
2022-08-04T06:36:27.388Z,23.12
2022-08-04T06:39:29.687Z,23.24
2022-08-04T06:42:31.570Z,23.35
2022-08-04T06:45:34.936Z,23.40
2022-08-04T06:48:38.743Z,23.48
2022-08-04T06:51:48.957Z,23.50
2022-08-04T06:54:52.089Z,23.59
2022-08-04T06:57:55.877Z,23.68
2022-08-04T07:01:02.250Z,23.73
2022-08-04T07:04:06.062Z,23.89
2022-08-04T07:07:07.956Z,24.02
2022-08-04T07:10:10.477Z,24.13
2022-08-04T07:13:12.607Z,24.26
2022-08-04T07:16:15.607Z,24.33
2022-08-04T07:19:19.286Z,24.40
2022-08-04T07:22:25.627Z,24.38
2022-08-04T07:25:57.146Z,24.43
2022-08-04T07:28:49.880Z,24.53
2022-08-04T07:31:51.959Z,24.61
2022-08-04T07:34:57.510Z,24.71
2022-08-04T07:38:01.630Z,24.84
2022-08-04T07:41:35.513Z,24.90
2022-08-04T07:44:27.750Z,24.99
2022-08-04T07:47:32.581Z,25.06
2022-08-04T07:50:35.893Z,25.13
2022-08-04T07:53:54.794Z,25.25
2022-08-04T07:56:58.144Z,25.40
2022-08-04T08:00:00.380Z,25.60
2022-08-04T08:03:03.099Z,25.72
2022-08-04T08:06:31.691Z,25.93
2022-08-04T08:09:33.153Z,26.14
2022-08-04T08:12:51.454Z,26.22
2022-08-04T08:15:54.005Z,26.31
2022-08-04T08:18:55.567Z,26.43
2022-08-04T08:22:01.616Z,26.64
2022-08-04T08:25:08.265Z,26.76
2022-08-04T08:28:12.681Z,26.89
2022-08-04T08:31:14.399Z,26.93
2022-08-04T08:34:27.390Z,27.10
2022-08-04T08:37:35.227Z,27.21
2022-08-04T08:40:47.660Z,27.40
2022-08-04T08:44:03.867Z,27.61
2022-08-04T08:47:19.494Z,27.70
2022-08-04T08:50:35.121Z,27.88
2022-08-04T08:53:51.380Z,27.98
2022-08-04T08:56:58.458Z,27.99
2022-08-04T09:00:03.352Z,28.04
2022-08-04T09:03:20.052Z,28.09
2022-08-04T09:06:37.672Z,28.06
2022-08-04T09:09:54.700Z,28.07
2022-08-04T09:12:57.868Z,28.16
2022-08-04T09:16:02.586Z,28.22
2022-08-04T09:19:07.624Z,28.36
2022-08-04T09:22:12.742Z,28.44
2022-08-04T09:25:20.328Z,28.55
2022-08-04T09:28:50.812Z,28.66
2022-08-04T09:32:06.477Z,28.73
2022-08-04T09:35:16.772Z,28.71
2022-08-04T09:38:21.072Z,28.77
2022-08-04T09:41:49.592Z,28.81
2022-08-04T09:45:04.135Z,28.96
2022-08-04T09:48:14.207Z,28.89
2022-08-04T09:51:22.374Z,29.06
2022-08-04T09:54:30.967Z,29.16
2022-08-04T09:57:45.786Z,29.22
2022-08-04T10:00:49.986Z,29.23
2022-08-04T10:03:53.294Z,29.24
2022-08-04T10:07:05.321Z,29.39
2022-08-04T10:10:19.264Z,29.49
2022-08-04T10:13:26.003Z,29.59
2022-08-04T10:16:38.226Z,29.70
2022-08-04T10:19:40.877Z,29.88
2022-08-04T10:23:09.252Z,29.95
2022-08-04T10:26:17.751Z,29.87
2022-08-04T10:29:24.580Z,29.88
2022-08-04T10:32:28.508Z,29.92
2022-08-04T10:35:35.200Z,30.14
2022-08-04T10:38:40.858Z,30.21
2022-08-04T10:41:47.117Z,30.07
2022-08-04T10:45:01.247Z,30.14
2022-08-04T10:48:06.858Z,30.39
2022-08-04T10:51:18.287Z,30.48
2022-08-04T10:54:26.210Z,30.42
2022-08-04T10:57:34.587Z,30.29
2022-08-04T11:00:42.141Z,30.27
2022-08-04T11:03:48.485Z,30.42
2022-08-04T11:06:53.026Z,30.62
2022-08-04T11:09:56.021Z,30.65
2022-08-04T11:13:02.089Z,30.68
2022-08-04T11:16:09.927Z,30.75
2022-08-04T11:19:18.132Z,30.61
2022-08-04T11:22:25.168Z,30.42
2022-08-04T11:25:29.938Z,30.58
2022-08-04T11:28:38.451Z,30.56
2022-08-04T11:31:44.707Z,30.85
2022-08-04T11:34:52.834Z,30.77
2022-08-04T11:38:02.656Z,30.99
2022-08-04T11:41:08.027Z,31.14
2022-08-04T11:44:13.038Z,31.25
2022-08-04T11:47:21.115Z,31.09
2022-08-04T11:50:29.215Z,31.14
2022-08-04T11:53:36.607Z,31.52
2022-08-04T11:56:50.171Z,31.81
2022-08-04T11:59:53.688Z,31.80
2022-08-04T12:03:08.902Z,32.00
2022-08-04T12:06:17.116Z,32.06
2022-08-04T12:09:22.942Z,32.08
2022-08-04T12:12:28.804Z,31.86
2022-08-04T12:15:31.632Z,31.83
2022-08-04T12:18:53.343Z,32.04
2022-08-04T12:21:57.618Z,32.30
2022-08-04T12:25:01.414Z,32.40
2022-08-04T12:28:05.357Z,32.33
2022-08-04T12:31:11.783Z,32.42
2022-08-04T12:34:17.548Z,32.64
2022-08-04T12:37:24.204Z,32.48
2022-08-04T12:40:31.108Z,32.25
2022-08-04T12:43:37.220Z,32.27
2022-08-04T12:46:40.281Z,32.00
2022-08-04T12:49:48.115Z,31.75
2022-08-04T12:53:03.398Z,31.55
2022-08-04T12:56:07.700Z,31.83
2022-08-04T12:59:12.823Z,32.10
2022-08-04T13:02:18.891Z,32.21
2022-08-04T13:05:23.089Z,32.20
2022-08-04T13:08:25.117Z,32.10
2022-08-04T13:11:26.922Z,32.01
2022-08-04T13:14:31.817Z,31.82
2022-08-04T13:17:42.665Z,31.90
2022-08-04T13:20:46.088Z,31.97
2022-08-04T13:24:09.446Z,32.00
2022-08-04T13:27:16.377Z,32.20
2022-08-04T13:30:22.947Z,32.26
2022-08-04T13:33:29.484Z,32.42
2022-08-04T13:36:33.114Z,32.51
2022-08-04T13:39:35.260Z,32.56
2022-08-04T13:42:37.595Z,32.62
2022-08-04T13:45:41.229Z,32.62
2022-08-04T13:49:03.364Z,32.63
2022-08-04T13:52:11.893Z,32.30
2022-08-04T13:55:22.636Z,32.04
2022-08-04T13:58:25.418Z,32.01
2022-08-04T14:01:35.613Z,32.24
2022-08-04T14:04:40.773Z,32.34
2022-08-04T14:07:46.387Z,32.43
2022-08-04T14:10:56.310Z,32.45
2022-08-04T14:13:58.082Z,32.36
2022-08-04T14:17:04.221Z,32.24
2022-08-04T14:20:06.953Z,32.29
2022-08-04T14:23:11.178Z,32.32
2022-08-04T14:26:17.008Z,32.40
2022-08-04T14:29:26.526Z,32.41
2022-08-04T14:32:32.577Z,32.26
2022-08-04T14:35:49.902Z,32.04
2022-08-04T14:38:58.504Z,31.84
2022-08-04T14:42:02.357Z,31.73
2022-08-04T14:45:05.849Z,31.62
2022-08-04T14:48:08.233Z,31.57
2022-08-04T14:51:15.033Z,31.45
2022-08-04T14:54:25.425Z,31.38
2022-08-04T14:57:27.456Z,31.49
2022-08-04T15:00:30.839Z,31.68
2022-08-04T15:03:32.955Z,31.67
2022-08-04T15:06:34.931Z,31.49
2022-08-04T15:09:38.151Z,31.27
2022-08-04T15:12:40.049Z,31.08
2022-08-04T15:15:42.108Z,30.96
2022-08-04T15:18:43.881Z,30.90
2022-08-04T15:21:53.741Z,30.80
2022-08-04T15:24:56.846Z,30.74
2022-08-04T15:27:59.622Z,30.70
2022-08-04T15:31:02.124Z,30.63
2022-08-04T15:34:03.750Z,30.58
2022-08-04T15:37:06.963Z,30.59
2022-08-04T15:40:13.963Z,30.55
2022-08-04T15:43:26.178Z,30.50
2022-08-04T15:46:45.198Z,30.41
2022-08-04T15:50:02.258Z,30.32
2022-08-04T15:53:10.867Z,30.29
2022-08-04T15:56:29.945Z,30.25
2022-08-04T15:59:50.907Z,30.25
2022-08-04T16:02:53.889Z,29.80
2022-08-04T16:05:55.485Z,29.42
2022-08-04T16:09:01.910Z,29.22
2022-08-04T16:12:03.889Z,29.03
2022-08-04T16:15:20.353Z,28.88
2022-08-04T16:18:40.605Z,28.84
2022-08-04T16:21:47.623Z,28.71
2022-08-04T16:24:51.942Z,28.49
2022-08-04T16:27:53.531Z,28.28
2022-08-04T16:30:59.575Z,28.20
2022-08-04T16:34:32.327Z,28.06
2022-08-04T16:37:29.298Z,28.01
2022-08-04T16:40:39.693Z,27.89
2022-08-04T16:43:42.978Z,27.84
2022-08-04T16:47:22.057Z,27.85
2022-08-04T16:50:07.935Z,27.78
2022-08-04T16:53:51.374Z,27.78
2022-08-04T16:56:35.212Z,27.78
2022-08-04T16:59:37.862Z,27.74
2022-08-04T17:02:50.799Z,27.71
2022-08-04T17:06:04.892Z,27.65
2022-08-04T17:09:09.304Z,27.58
2022-08-04T17:12:11.062Z,27.45
2022-08-04T17:15:22.811Z,27.36
2022-08-04T17:18:25.507Z,27.30
2022-08-04T17:21:30.237Z,27.26
2022-08-04T17:24:32.543Z,27.21
2022-08-04T17:28:09.262Z,27.18
2022-08-04T17:30:59.279Z,27.15
2022-08-04T17:34:14.144Z,27.10
2022-08-04T17:37:53.075Z,27.05
2022-08-04T17:40:52.770Z,27.05
2022-08-04T17:44:06.403Z,27.04
2022-08-04T17:47:16.503Z,27.00
2022-08-04T17:50:25.710Z,26.89
2022-08-04T17:54:01.726Z,26.83
2022-08-04T17:57:01.461Z,26.77
2022-08-04T18:00:04.148Z,26.72
2022-08-04T18:03:06.594Z,26.66
2022-08-04T18:06:11.846Z,26.52
2022-08-04T18:09:22.247Z,26.46
2022-08-04T18:12:43.647Z,26.43
2022-08-04T18:15:46.530Z,26.39
2022-08-04T18:19:03.373Z,26.38
2022-08-04T18:22:08.157Z,26.39
2022-08-04T18:25:22.919Z,26.35
2022-08-04T18:28:44.869Z,26.33
2022-08-04T18:31:46.557Z,26.26
2022-08-04T18:34:54.508Z,26.24
2022-08-04T18:38:05.368Z,26.23
2022-08-04T18:41:10.916Z,26.17
2022-08-04T18:44:14.481Z,26.13
2022-08-04T18:47:23.549Z,26.11
2022-08-04T18:50:59.842Z,26.07
2022-08-04T18:53:55.124Z,26.01
2022-08-04T18:57:24.895Z,25.98
2022-08-04T19:00:24.098Z,25.97
2022-08-04T19:03:25.768Z,25.95
2022-08-04T19:06:33.483Z,25.89
2022-08-04T19:09:51.874Z,25.86
2022-08-04T19:12:58.075Z,25.78
2022-08-04T19:16:01.474Z,25.71
2022-08-04T19:22:36.083Z,25.62
2022-08-04T19:25:59.060Z,25.65
2022-08-04T19:29:07.222Z,25.62
2022-08-04T19:32:15.113Z,25.58
2022-08-04T19:35:20.055Z,25.52
2022-08-04T19:38:22.025Z,25.50
2022-08-04T19:41:26.652Z,25.42
2022-08-04T19:44:30.434Z,25.35
2022-08-04T19:48:11.334Z,25.29
2022-08-04T19:50:54.164Z,25.22
2022-08-04T19:54:03.948Z,25.11
2022-08-04T19:57:12.966Z,25.06
2022-08-04T20:00:18.120Z,25.00
2022-08-04T20:04:09.947Z,25.01
2022-08-04T20:06:58.398Z,25.00
2022-08-04T20:10:00.353Z,24.96
2022-08-04T20:13:10.433Z,24.95
2022-08-04T20:16:29.760Z,24.93
2022-08-04T20:19:39.542Z,24.80
2022-08-04T20:22:52.930Z,24.77
2022-08-04T20:25:55.227Z,24.74
2022-08-04T20:28:57.980Z,24.73
2022-08-04T20:32:05.417Z,24.71
2022-08-04T20:35:15.659Z,24.68
2022-08-04T20:38:33.080Z,24.61
2022-08-04T20:41:36.923Z,24.58
2022-08-04T20:44:42.384Z,24.56
2022-08-04T20:47:53.372Z,24.53
2022-08-04T20:50:57.099Z,24.49
2022-08-04T20:53:59.456Z,24.41
2022-08-04T20:57:03.748Z,24.32
2022-08-04T21:00:06.531Z,24.23
2022-08-04T21:03:10.215Z,24.19
2022-08-04T21:06:11.843Z,24.21
2022-08-04T21:09:15.524Z,24.09
2022-08-04T21:12:29.289Z,24.11
2022-08-04T21:15:57.883Z,24.11
2022-08-04T21:18:54.507Z,24.06
2022-08-04T21:21:59.269Z,23.99
2022-08-04T21:25:01.434Z,23.99
2022-08-04T21:28:04.444Z,23.95
2022-08-04T21:31:11.397Z,23.88
2022-08-04T21:34:38.052Z,23.82
2022-08-04T21:37:56.489Z,23.73
2022-08-04T21:41:01.745Z,23.67
2022-08-04T21:44:04.236Z,23.59
2022-08-04T21:47:06.347Z,23.58
2022-08-04T21:50:20.415Z,23.47
2022-08-04T21:53:22.507Z,23.50
2022-08-04T21:56:26.485Z,23.41
2022-08-04T21:59:30.945Z,23.29
2022-08-04T22:02:32.811Z,23.23
2022-08-04T22:05:35.987Z,23.22
2022-08-04T22:08:38.492Z,23.18
2022-08-04T22:11:49.174Z,23.10
2022-08-04T22:14:59.510Z,23.00
2022-08-04T22:18:04.282Z,22.96
2022-08-04T22:21:11.810Z,22.92
2022-08-04T22:24:14.557Z,22.86
2022-08-04T22:27:36.761Z,22.89
2022-08-04T22:30:51.992Z,22.79
2022-08-04T22:33:56.087Z,22.65
2022-08-04T22:37:00.847Z,22.60
2022-08-04T22:40:14.741Z,22.57
2022-08-04T22:43:31.362Z,22.50
2022-08-04T22:46:35.858Z,22.37
2022-08-04T22:49:37.886Z,22.28
2022-08-04T22:52:55.805Z,22.15
2022-08-04T22:56:09.527Z,22.08
2022-08-04T22:59:12.086Z,21.99
2022-08-04T23:02:14.618Z,21.87
2022-08-04T23:05:17.185Z,21.79
2022-08-04T23:08:21.305Z,21.66
2022-08-04T23:11:34.710Z,21.68
2022-08-04T23:14:37.951Z,21.70
2022-08-04T23:17:47.628Z,21.68
2022-08-04T23:20:49.862Z,21.67
2022-08-04T23:24:02.264Z,21.62
2022-08-04T23:27:04.628Z,21.61
2022-08-04T23:30:07.565Z,21.62
2022-08-04T23:33:11.340Z,21.61
2022-08-04T23:36:13.210Z,21.61
2022-08-04T23:39:17.221Z,21.62
2022-08-04T23:42:22.307Z,21.57
2022-08-04T23:46:04.152Z,21.50
2022-08-04T23:48:49.751Z,21.38
2022-08-04T23:51:52.860Z,21.39
2022-08-04T23:54:58.284Z,21.37
2022-08-04T23:58:05.309Z,21.27
